createdAt,value
2022-09-12T00:01:29.026Z,4.28
2022-09-12T00:04:00.259Z,4.45
2022-09-12T00:06:31.928Z,4.57
2022-09-12T00:09:03.079Z,4.00
2022-09-12T00:11:31.305Z,4.20
2022-09-12T00:14:02.040Z,4.10
2022-09-12T00:16:32.173Z,3.97
2022-09-12T00:19:01.643Z,3.22
2022-09-12T00:21:30.006Z,3.30
2022-09-12T00:23:58.821Z,3.10
2022-09-12T00:26:27.499Z,2.90
2022-09-12T00:28:55.914Z,2.70
2022-09-12T00:31:26.943Z,2.92
2022-09-12T00:33:58.549Z,2.80
2022-09-12T00:36:28.156Z,2.33
2022-09-12T00:38:56.422Z,2.78
2022-09-12T00:41:29.453Z,2.63
2022-09-12T00:44:24.712Z,2.78
2022-09-12T00:47:04.700Z,2.83
2022-09-12T00:49:53.421Z,2.70
2022-09-12T00:52:40.606Z,2.70
2022-09-12T00:55:13.691Z,2.70
2022-09-12T00:57:48.210Z,2.65
2022-09-12T01:00:19.936Z,2.80
2022-09-12T01:02:52.076Z,2.42
2022-09-12T01:05:20.699Z,2.70
2022-09-12T01:07:50.519Z,2.50
2022-09-12T01:10:20.074Z,2.10
2022-09-12T01:12:49.460Z,2.50
2022-09-12T01:15:17.743Z,2.60
2022-09-12T01:18:04.210Z,2.35
2022-09-12T01:20:37.244Z,2.40
2022-09-12T01:23:58.001Z,3.00
2022-09-12T01:26:31.736Z,2.80
2022-09-12T01:29:27.370Z,2.45
2022-09-12T01:32:29.802Z,2.80
2022-09-12T01:35:23.457Z,2.55
2022-09-12T01:38:10.075Z,2.28
2022-09-12T01:41:00.720Z,2.03
2022-09-12T01:43:51.150Z,2.40
2022-09-12T01:46:29.352Z,2.15
2022-09-12T01:49:13.390Z,2.10
2022-09-12T01:52:13.266Z,2.10
2022-09-12T01:55:08.993Z,1.90
2022-09-12T01:57:53.242Z,2.00
2022-09-12T02:00:21.436Z,1.90
2022-09-12T02:03:16.042Z,1.92
2022-09-12T02:05:49.678Z,1.92
2022-09-12T02:08:27.251Z,2.07
2022-09-12T02:11:07.847Z,1.80
2022-09-12T02:13:41.916Z,1.70
2022-09-12T02:16:34.627Z,1.67
2022-09-12T02:19:23.562Z,1.40
2022-09-12T02:21:59.242Z,1.40
2022-09-12T02:24:37.824Z,1.40
2022-09-12T02:27:11.231Z,1.35
2022-09-12T02:29:39.502Z,1.50
2022-09-12T02:32:12.602Z,1.55
2022-09-12T02:35:07.362Z,1.40
2022-09-12T02:37:56.396Z,1.52
2022-09-12T02:40:24.832Z,1.50
2022-09-12T02:42:53.346Z,1.50
2022-09-12T02:45:23.665Z,1.35
2022-09-12T02:47:58.290Z,1.50
2022-09-12T02:50:27.544Z,1.50
2022-09-12T02:53:05.448Z,1.30
2022-09-12T02:55:35.397Z,1.30
2022-09-12T02:58:05.772Z,1.20
2022-09-12T03:01:01.387Z,1.20
2022-09-12T03:04:04.418Z,1.30
2022-09-12T03:06:54.910Z,1.60
2022-09-12T03:09:43.485Z,1.30
2022-09-12T03:12:14.037Z,1.20
2022-09-12T03:15:05.032Z,1.10
2022-09-12T03:17:36.064Z,1.30
2022-09-12T03:20:18.506Z,1.30
2022-09-12T03:23:03.662Z,1.05
2022-09-12T03:25:34.916Z,1.20
2022-09-12T03:28:24.214Z,1.20
2022-09-12T03:30:53.980Z,1.42
2022-09-12T03:33:25.261Z,1.25
2022-09-12T03:35:54.262Z,1.10
2022-09-12T03:38:22.197Z,1.20
2022-09-12T03:40:54.587Z,1.13
2022-09-12T03:43:23.488Z,1.42
2022-09-12T03:45:53.683Z,1.30
2022-09-12T03:48:21.899Z,1.30
2022-09-12T03:50:49.751Z,1.52
2022-09-12T03:53:17.921Z,1.30
2022-09-12T03:55:45.951Z,1.30
2022-09-12T03:58:13.923Z,1.25
2022-09-12T04:00:43.335Z,1.45
2022-09-12T04:03:11.448Z,1.20
2022-09-12T04:05:39.422Z,1.23
2022-09-12T04:08:07.661Z,1.35
2022-09-12T04:10:35.563Z,1.40
2022-09-12T04:13:03.590Z,1.17
2022-09-12T04:15:31.935Z,1.50
2022-09-12T04:18:05.095Z,1.90
2022-09-12T04:20:34.151Z,2.10
2022-09-12T04:23:02.046Z,2.30
2022-09-12T04:25:31.928Z,1.73
2022-09-12T04:27:59.938Z,2.20
2022-09-12T04:30:27.943Z,1.60
2022-09-12T04:32:56.194Z,1.60
2022-09-12T04:35:24.243Z,1.70
2022-09-12T04:37:52.246Z,1.50
2022-09-12T04:40:20.277Z,1.50
2022-09-12T04:42:48.295Z,1.50
2022-09-12T04:45:17.414Z,1.55
2022-09-12T04:47:47.151Z,1.85
2022-09-12T04:50:15.654Z,1.60
2022-09-12T04:52:43.795Z,1.58
2022-09-12T04:55:11.888Z,1.40
2022-09-12T04:57:40.325Z,1.55
2022-09-12T05:00:08.812Z,1.60
2022-09-12T05:02:36.857Z,1.48
2022-09-12T05:05:05.080Z,1.75
2022-09-12T05:07:33.137Z,1.70
2022-09-12T05:10:01.367Z,2.20
2022-09-12T05:12:29.447Z,2.40
2022-09-12T05:14:57.974Z,2.30
2022-09-12T05:17:26.006Z,2.20
2022-09-12T05:19:54.069Z,2.03
2022-09-12T05:22:22.225Z,2.17
2022-09-12T05:24:50.807Z,2.00
2022-09-12T05:27:19.096Z,2.08
2022-09-12T05:29:47.093Z,2.00
2022-09-12T05:32:15.104Z,2.03
2022-09-12T05:34:43.217Z,2.35
2022-09-12T05:37:11.360Z,2.03
2022-09-12T05:39:39.355Z,2.03
2022-09-12T05:42:07.527Z,1.88
2022-09-12T05:44:35.429Z,2.00
2022-09-12T05:47:03.751Z,2.38
2022-09-12T05:49:31.791Z,1.90
2022-09-12T05:52:00.147Z,2.10
2022-09-12T05:54:31.657Z,1.90
2022-09-12T05:57:00.563Z,1.80
2022-09-12T05:59:29.051Z,1.90
2022-09-12T06:01:57.140Z,1.75
2022-09-12T06:04:26.181Z,1.90
2022-09-12T06:06:54.254Z,1.80
2022-09-12T06:09:22.337Z,1.50
2022-09-12T06:11:50.470Z,1.50
2022-09-12T06:14:19.970Z,1.55
2022-09-12T06:16:49.005Z,1.75
2022-09-12T06:19:20.145Z,1.52
2022-09-12T06:21:52.005Z,1.43
2022-09-12T06:24:21.709Z,1.50
2022-09-12T06:26:53.215Z,1.60
2022-09-12T06:29:21.510Z,1.52
2022-09-12T06:31:49.436Z,1.60
2022-09-12T06:34:17.712Z,1.63
2022-09-12T06:36:49.960Z,1.40
2022-09-12T06:39:20.496Z,1.90
2022-09-12T06:41:50.298Z,1.70
2022-09-12T06:44:23.163Z,1.65
2022-09-12T06:46:51.507Z,1.60
2022-09-12T06:49:19.496Z,1.30
2022-09-12T06:51:47.661Z,1.40
2022-09-12T06:54:17.240Z,1.40
2022-09-12T06:56:45.908Z,1.20
2022-09-12T06:59:14.025Z,1.63
2022-09-12T07:01:42.477Z,1.65
2022-09-12T07:04:11.944Z,1.88
2022-09-12T07:06:42.266Z,1.30
2022-09-12T07:09:14.222Z,1.63
2022-09-12T07:11:43.296Z,1.70
2022-09-12T07:14:14.370Z,1.55
2022-09-12T07:16:42.952Z,1.60
2022-09-12T07:19:12.564Z,1.80
2022-09-12T07:21:41.280Z,1.60
2022-09-12T07:24:10.884Z,1.50
2022-09-12T07:26:41.005Z,1.52
2022-09-12T07:32:06.288Z,1.63
2022-09-12T07:34:35.350Z,1.50
2022-09-12T07:37:03.363Z,1.47
2022-09-12T07:39:31.387Z,1.33
2022-09-12T07:42:00.921Z,1.30
2022-09-12T07:44:29.548Z,1.40
2022-09-12T07:46:57.776Z,1.40
2022-09-12T07:49:25.844Z,1.30
2022-09-12T07:51:54.629Z,1.27
2022-09-12T07:54:22.860Z,1.20
2022-09-12T07:56:51.204Z,1.10
2022-09-12T07:59:35.690Z,1.40
2022-09-12T08:02:07.521Z,1.23
2022-09-12T08:04:36.874Z,1.40
2022-09-12T08:07:04.947Z,1.30
2022-09-12T08:09:33.087Z,1.48
2022-09-12T08:12:01.141Z,1.20
2022-09-12T08:14:30.127Z,1.48
2022-09-12T08:16:58.411Z,1.30
2022-09-12T08:19:26.299Z,1.40
2022-09-12T08:21:54.525Z,1.20
2022-09-12T08:24:22.553Z,1.25
2022-09-12T08:26:50.611Z,1.50
2022-09-12T08:29:18.641Z,1.20
2022-09-12T08:31:47.490Z,1.35
2022-09-12T08:34:17.433Z,1.40
2022-09-12T08:36:45.611Z,1.38
2022-09-12T08:39:14.909Z,1.50
2022-09-12T08:41:46.047Z,1.43
2022-09-12T08:44:20.248Z,1.80
2022-09-12T08:47:00.141Z,1.33
2022-09-12T08:49:39.984Z,1.33
2022-09-12T08:52:32.931Z,1.60
2022-09-12T08:55:02.440Z,1.20
2022-09-12T08:57:30.783Z,1.30
2022-09-12T08:59:58.875Z,1.27
2022-09-12T09:02:40.256Z,1.50
2022-09-12T09:05:39.635Z,1.20
2022-09-12T09:08:24.100Z,1.20
2022-09-12T09:11:15.030Z,1.35
2022-09-12T09:14:19.505Z,1.40
2022-09-12T09:16:50.917Z,1.50
2022-09-12T09:19:22.211Z,1.50
2022-09-12T09:22:00.636Z,1.77
2022-09-12T09:24:45.840Z,1.65
2022-09-12T09:27:41.694Z,1.60
2022-09-12T09:30:24.680Z,1.60
2022-09-12T09:32:56.972Z,1.48
2022-09-12T09:35:47.141Z,1.30
2022-09-12T09:38:25.698Z,2.03
2022-09-12T09:41:04.662Z,1.27
2022-09-12T09:43:38.048Z,1.60
2022-09-12T09:46:07.136Z,1.30
2022-09-12T09:48:38.025Z,1.40
2022-09-12T09:51:09.914Z,1.30
2022-09-12T09:53:57.066Z,1.33
2022-09-12T09:56:35.524Z,1.30
2022-09-12T09:59:18.590Z,1.52
2022-09-12T10:01:57.933Z,1.47
2022-09-12T10:04:29.757Z,1.30
2022-09-12T10:07:01.298Z,1.50
2022-09-12T10:09:33.361Z,1.50
2022-09-12T10:12:21.315Z,1.10
2022-09-12T10:15:03.549Z,1.30
2022-09-12T10:17:40.769Z,1.37
2022-09-12T10:20:34.733Z,1.20
2022-09-12T10:23:23.882Z,1.13
2022-09-12T10:25:58.606Z,1.33
2022-09-12T10:28:50.501Z,0.90
2022-09-12T10:31:29.791Z,1.30
2022-09-12T10:34:00.741Z,1.38
2022-09-12T10:36:40.396Z,1.17
2022-09-12T10:39:19.097Z,4.90
2022-09-12T10:41:47.907Z,1.80
2022-09-12T10:44:19.416Z,1.43
2022-09-12T10:46:47.639Z,1.33
2022-09-12T10:49:23.500Z,1.17
2022-09-12T10:51:54.580Z,1.50
2022-09-12T10:54:26.145Z,1.30
2022-09-12T10:57:06.396Z,1.70
2022-09-12T10:59:58.629Z,1.38
2022-09-12T11:02:41.496Z,1.40
2022-09-12T11:05:23.481Z,1.50
2022-09-12T11:08:20.495Z,1.60
2022-09-12T11:11:17.210Z,1.63
2022-09-12T11:14:00.328Z,1.38
2022-09-12T11:17:13.400Z,1.50
2022-09-12T11:19:58.194Z,1.63
2022-09-12T11:22:54.197Z,1.60
2022-09-12T11:25:37.032Z,1.50
2022-09-12T11:28:14.254Z,1.50
2022-09-12T11:31:16.840Z,1.40
2022-09-12T11:33:56.802Z,1.60
2022-09-12T11:36:28.061Z,1.27
2022-09-12T11:39:08.129Z,1.37
2022-09-12T11:41:40.816Z,1.40
2022-09-12T11:44:39.992Z,1.40
2022-09-12T11:47:14.406Z,1.50
2022-09-12T11:49:47.856Z,1.30
2022-09-12T11:52:24.949Z,1.50
2022-09-12T11:54:55.954Z,1.40
2022-09-12T11:57:54.067Z,1.20
2022-09-12T12:00:27.242Z,1.48
2022-09-12T12:03:03.866Z,1.52
2022-09-12T12:05:41.587Z,1.63
2022-09-12T12:08:11.312Z,1.50
2022-09-12T12:10:44.920Z,1.67
2022-09-12T12:13:22.502Z,1.50
2022-09-12T12:15:59.166Z,1.35
2022-09-12T12:18:32.928Z,1.30
2022-09-12T12:21:33.423Z,1.30
2022-09-12T12:24:12.925Z,1.40
2022-09-12T12:26:43.727Z,1.58
2022-09-12T12:29:14.025Z,1.50
2022-09-12T12:32:00.148Z,1.40
2022-09-12T12:34:40.519Z,1.40
2022-09-12T12:37:20.546Z,1.70
2022-09-12T12:39:48.560Z,1.38
2022-09-12T12:42:45.514Z,1.33
2022-09-12T12:45:19.408Z,1.20
2022-09-12T12:47:57.402Z,1.38
2022-09-12T12:50:28.202Z,1.60
2022-09-12T12:53:05.828Z,1.63
2022-09-12T12:55:38.090Z,1.20
2022-09-12T12:58:35.921Z,1.37
2022-09-12T13:01:22.496Z,1.45
2022-09-12T13:04:16.180Z,1.40
2022-09-12T13:07:23.318Z,1.20
2022-09-12T13:09:55.765Z,1.42
2022-09-12T13:12:34.253Z,1.47
2022-09-12T13:15:06.387Z,1.70
2022-09-12T13:17:44.486Z,1.48
2022-09-12T13:20:29.199Z,1.60
2022-09-12T13:22:59.004Z,1.50
2022-09-12T13:25:36.969Z,1.40
2022-09-12T13:28:18.997Z,1.40
2022-09-12T13:31:09.427Z,1.20
2022-09-12T13:33:59.906Z,1.52
2022-09-12T13:36:51.298Z,1.50
2022-09-12T13:39:35.606Z,1.30
2022-09-12T13:42:03.694Z,1.40
2022-09-12T13:44:37.449Z,1.50
2022-09-12T13:47:06.464Z,1.10
2022-09-12T13:49:38.458Z,1.10
2022-09-12T13:52:18.458Z,1.20
2022-09-12T13:54:49.832Z,1.30
2022-09-12T13:57:43.710Z,1.30
2022-09-12T14:00:22.715Z,1.42
2022-09-12T14:03:11.611Z,1.30
2022-09-12T14:05:41.810Z,1.33
2022-09-12T14:08:12.404Z,1.38
2022-09-12T14:10:43.537Z,1.30
2022-09-12T14:13:20.099Z,1.30
2022-09-12T14:15:52.934Z,1.35
2022-09-12T14:18:34.895Z,1.40
2022-09-12T14:21:34.530Z,1.40
2022-09-12T14:24:06.063Z,1.52
2022-09-12T14:26:40.530Z,1.20
2022-09-12T14:29:09.861Z,1.30
2022-09-12T14:31:39.732Z,1.57
2022-09-12T14:34:12.709Z,1.40
2022-09-12T14:36:47.006Z,1.40
2022-09-12T14:39:23.270Z,1.33
2022-09-12T14:42:00.463Z,1.40
2022-09-12T14:44:31.685Z,1.67
2022-09-12T14:47:12.526Z,1.70
2022-09-12T14:49:41.553Z,1.40
2022-09-12T14:52:25.766Z,1.70
2022-09-12T14:54:59.256Z,1.60
2022-09-12T14:57:42.367Z,1.50
2022-09-12T15:00:13.438Z,1.77
2022-09-12T15:02:45.147Z,1.45
2022-09-12T15:05:13.509Z,1.67
2022-09-12T15:07:43.616Z,1.80
2022-09-12T15:10:36.028Z,1.33
2022-09-12T15:13:06.773Z,1.48
2022-09-12T15:15:35.384Z,1.30
2022-09-12T15:18:06.608Z,1.48
2022-09-12T15:20:41.808Z,1.30
2022-09-12T15:23:29.317Z,1.60
2022-09-12T15:25:58.202Z,1.50
2022-09-12T15:28:27.220Z,1.50
2022-09-12T15:30:57.063Z,1.33
2022-09-12T15:33:26.103Z,1.50
2022-09-12T15:35:54.300Z,1.80
2022-09-12T15:38:26.377Z,1.20
2022-09-12T15:40:55.173Z,1.30
2022-09-12T15:43:24.230Z,1.70
2022-09-12T15:45:52.801Z,1.17
2022-09-12T15:48:21.536Z,1.50
2022-09-12T15:50:49.679Z,1.73
2022-09-12T15:53:18.112Z,1.50
2022-09-12T15:55:46.742Z,1.40
2022-09-12T15:58:14.985Z,1.50
2022-09-12T16:00:42.964Z,1.50
2022-09-12T16:03:23.929Z,1.65
2022-09-12T16:05:57.951Z,1.70
2022-09-12T16:08:26.521Z,1.45
2022-09-12T16:10:59.634Z,1.80
2022-09-12T16:13:27.790Z,1.50
2022-09-12T16:15:59.732Z,1.73
2022-09-12T16:18:28.698Z,1.60
2022-09-12T16:20:57.827Z,1.65
2022-09-12T16:23:25.865Z,1.38
2022-09-12T16:26:02.048Z,1.67
2022-09-12T16:28:30.683Z,1.40
2022-09-12T16:31:00.459Z,1.40
2022-09-12T16:33:29.622Z,1.70
2022-09-12T16:36:12.013Z,1.45
2022-09-12T16:38:50.444Z,1.63
2022-09-12T16:41:20.627Z,1.40
2022-09-12T16:43:49.278Z,1.50
2022-09-12T16:46:26.155Z,1.67
2022-09-12T16:48:59.385Z,1.40
2022-09-12T16:51:31.306Z,1.60
2022-09-12T16:53:59.646Z,1.70
2022-09-12T16:56:28.108Z,1.40
2022-09-12T16:58:56.308Z,1.80
2022-09-12T17:01:26.825Z,1.60
2022-09-12T17:03:57.294Z,1.52
2022-09-12T17:06:26.309Z,1.45
2022-09-12T17:08:56.469Z,1.60
2022-09-12T17:11:27.324Z,1.60
2022-09-12T17:14:05.818Z,1.60
2022-09-12T17:16:37.990Z,1.70
2022-09-12T17:19:07.335Z,1.60
2022-09-12T17:21:35.895Z,1.53
2022-09-12T17:24:04.555Z,1.85
2022-09-12T17:26:32.483Z,1.67
2022-09-12T17:29:01.323Z,1.63
2022-09-12T17:31:29.452Z,1.63
2022-09-12T17:33:58.976Z,1.77
2022-09-12T17:36:28.366Z,1.60
2022-09-12T17:38:56.892Z,2.13
2022-09-12T17:41:27.818Z,2.00
2022-09-12T17:43:57.920Z,1.80
2022-09-12T17:46:35.405Z,1.90
2022-09-12T17:49:06.431Z,2.00
2022-09-12T17:51:34.614Z,1.95
2022-09-12T17:54:13.280Z,1.80
2022-09-12T17:56:41.629Z,1.80
2022-09-12T17:59:14.417Z,1.70
2022-09-12T18:02:01.288Z,2.10
2022-09-12T18:04:30.280Z,2.10
2022-09-12T18:07:00.654Z,1.70
2022-09-12T18:09:31.058Z,2.00
2022-09-12T18:11:59.913Z,2.20
2022-09-12T18:14:29.092Z,1.90
2022-09-12T18:16:57.955Z,2.03
2022-09-12T18:19:27.061Z,1.98
2022-09-12T18:21:56.465Z,2.00
2022-09-12T18:24:25.069Z,1.60
2022-09-12T18:26:53.137Z,2.00
2022-09-12T18:29:21.092Z,1.83
2022-09-12T18:31:49.818Z,2.03
2022-09-12T18:34:18.208Z,1.83
2022-09-12T18:36:48.513Z,1.83
2022-09-12T18:39:18.391Z,1.88
2022-09-12T18:41:46.717Z,1.90
2022-09-12T18:44:14.605Z,2.08
2022-09-12T18:46:42.936Z,1.98
2022-09-12T18:49:11.080Z,2.33
2022-09-12T18:51:42.062Z,2.40
2022-09-12T18:54:14.672Z,2.10
2022-09-12T18:56:44.408Z,2.10
2022-09-12T18:59:15.801Z,1.90
2022-09-12T19:01:44.102Z,2.20
2022-09-12T19:04:14.023Z,2.30
2022-09-12T19:06:44.782Z,2.10
2022-09-12T19:09:14.925Z,2.20
2022-09-12T19:11:49.191Z,2.10
2022-09-12T19:14:19.703Z,2.10
2022-09-12T19:16:47.759Z,2.00
2022-09-12T19:19:16.034Z,2.25
2022-09-12T19:21:45.333Z,2.10
2022-09-12T19:24:17.636Z,2.20
2022-09-12T19:26:51.028Z,1.90
2022-09-12T19:29:19.616Z,2.05
2022-09-12T19:31:47.701Z,2.25
2022-09-12T19:34:22.225Z,2.13
2022-09-12T19:36:52.215Z,1.92
2022-09-12T19:39:21.187Z,1.90
2022-09-12T19:41:49.738Z,1.92
2022-09-12T19:44:24.116Z,2.13
2022-09-12T19:46:53.253Z,1.90
2022-09-12T19:49:21.463Z,2.20
2022-09-12T19:51:49.647Z,2.03
2022-09-12T19:54:17.622Z,2.15
2022-09-12T19:56:45.661Z,2.42
2022-09-12T19:59:16.103Z,2.33
2022-09-12T20:01:46.513Z,2.60
2022-09-12T20:04:15.645Z,2.60
2022-09-12T20:06:45.903Z,2.58
2022-09-12T20:09:15.257Z,2.60
2022-09-12T20:11:46.233Z,2.70
2022-09-12T20:14:14.756Z,2.40
2022-09-12T20:16:43.821Z,2.33
2022-09-12T20:19:12.809Z,2.33
2022-09-12T20:21:43.009Z,2.40
2022-09-12T20:24:17.065Z,2.35
2022-09-12T20:26:45.771Z,2.53
2022-09-12T20:29:13.761Z,3.33
2022-09-12T20:31:42.915Z,3.30
2022-09-12T20:34:23.401Z,3.13
2022-09-12T20:36:57.291Z,3.10
2022-09-12T20:39:25.590Z,3.40
2022-09-12T20:41:53.565Z,2.97
2022-09-12T20:44:22.289Z,3.35
2022-09-12T20:46:50.304Z,2.90
2022-09-12T20:49:21.266Z,2.70
2022-09-12T20:51:49.327Z,2.90
2022-09-12T20:54:17.355Z,2.77
2022-09-12T20:56:45.647Z,2.65
2022-09-12T20:59:13.601Z,2.60
2022-09-12T21:01:41.678Z,3.03
2022-09-12T21:04:14.308Z,2.63
2022-09-12T21:06:43.243Z,2.60
2022-09-12T21:09:12.693Z,2.60
2022-09-12T21:11:40.957Z,2.40
2022-09-12T21:14:08.991Z,2.33
2022-09-12T21:16:38.952Z,2.47
2022-09-12T21:19:07.258Z,2.40
2022-09-12T21:21:35.349Z,2.40
2022-09-12T21:24:04.315Z,2.20
2022-09-12T21:26:33.351Z,2.30
2022-09-12T21:29:01.495Z,2.10
2022-09-12T21:31:33.433Z,2.27
2022-09-12T21:34:01.317Z,2.30
2022-09-12T21:36:29.129Z,2.38
2022-09-12T21:39:01.222Z,2.45
2022-09-12T21:41:29.428Z,2.33
2022-09-12T21:43:57.256Z,1.97
2022-09-12T21:46:25.934Z,2.33
2022-09-12T21:48:54.056Z,2.10
2022-09-12T21:51:22.121Z,2.03
2022-09-12T21:53:50.004Z,2.47
2022-09-12T21:56:17.867Z,2.17
2022-09-12T21:58:45.763Z,2.20
2022-09-12T22:01:13.755Z,2.58
2022-09-12T22:03:43.432Z,2.00
2022-09-12T22:06:11.843Z,2.00
2022-09-12T22:08:40.569Z,2.10
2022-09-12T22:11:10.468Z,2.00
2022-09-12T22:13:43.902Z,2.30
2022-09-12T22:16:12.505Z,2.00
2022-09-12T22:18:40.806Z,2.17
2022-09-12T22:21:15.708Z,2.20
2022-09-12T22:24:03.250Z,1.88
2022-09-12T22:26:37.056Z,1.90
2022-09-12T22:29:04.905Z,2.05
2022-09-12T22:31:34.073Z,2.00
2022-09-12T22:34:02.215Z,2.00
2022-09-12T22:36:31.409Z,2.00
2022-09-12T22:39:00.724Z,2.08
2022-09-12T22:41:28.994Z,2.22
2022-09-12T22:43:57.753Z,2.10
2022-09-12T22:46:26.113Z,2.20
2022-09-12T22:48:55.936Z,2.47
2022-09-12T22:51:24.101Z,2.03
2022-09-12T22:53:52.693Z,2.22
2022-09-12T22:56:20.652Z,2.22
2022-09-12T22:58:48.646Z,2.33
2022-09-12T23:01:16.612Z,2.38
2022-09-12T23:03:44.885Z,1.90
2022-09-12T23:06:13.081Z,1.92
2022-09-12T23:08:41.341Z,2.30
2022-09-12T23:11:13.371Z,2.13
2022-09-12T23:13:47.115Z,2.45
2022-09-12T23:16:32.996Z,2.30
2022-09-12T23:19:04.357Z,2.10
2022-09-12T23:21:32.448Z,2.30
2022-09-12T23:24:00.322Z,2.20
2022-09-12T23:26:29.190Z,1.98
2022-09-12T23:28:59.161Z,2.08
2022-09-12T23:31:30.631Z,2.10
2022-09-12T23:34:06.337Z,2.10
2022-09-12T23:36:35.036Z,1.93
2022-09-12T23:39:03.115Z,2.00
2022-09-12T23:41:31.560Z,2.13
2022-09-12T23:43:59.603Z,2.00
2022-09-12T23:46:28.101Z,2.00
2022-09-12T23:48:55.944Z,2.03
2022-09-12T23:51:24.067Z,2.08
2022-09-12T23:53:51.945Z,2.00
2022-09-12T23:56:20.072Z,2.03
2022-09-12T23:58:48.125Z,2.20
